sensor_id;sensor_type;location;lat;lon;timestamp;P1;durP1;ratioP1;P2;durP2;ratioP2
30888;SDS011;51092;50.874;7.024;2023-02-04T00:00:33;26.65;;;5.75;;
30888;SDS011;51092;50.874;7.024;2023-02-04T00:01:36;35.08;;;7.43;;
30888;SDS011;51092;50.874;7.024;2023-02-04T00:02:37;29.23;;;6.75;;
30888;SDS011;51092;50.874;7.024;2023-02-04T00:03:40;29.80;;;7.40;;
30888;SDS011;51092;50.874;7.024;2023-02-04T00:04:42;30.40;;;7.03;;
30888;SDS011;51092;50.874;7.024;2023-02-04T00:05:44;24.40;;;5.25;;
30888;SDS011;51092;50.874;7.024;2023-02-04T00:06:46;34.28;;;6.65;;
30888;SDS011;51092;50.874;7.024;2023-02-04T00:07:50;27.02;;;5.65;;
30888;SDS011;51092;50.874;7.024;2023-02-04T00:08:51;28.73;;;5.45;;
30888;SDS011;51092;50.874;7.024;2023-02-04T00:09:55;34.58;;;6.78;;
30888;SDS011;51092;50.874;7.024;2023-02-04T00:10:57;29.63;;;7.75;;
30888;SDS011;51092;50.874;7.024;2023-02-04T00:11:59;30.20;;;5.90;;
30888;SDS011;51092;50.874;7.024;2023-02-04T00:13:01;34.22;;;7.28;;
30888;SDS011;51092;50.874;7.024;2023-02-04T00:14:04;33.03;;;7.75;;
30888;SDS011;51092;50.874;7.024;2023-02-04T00:15:06;28.90;;;6.45;;
30888;SDS011;51092;50.874;7.024;2023-02-04T00:16:10;29.08;;;7.55;;
30888;SDS011;51092;50.874;7.024;2023-02-04T00:17:11;27.98;;;7.43;;
30888;SDS011;51092;50.874;7.024;2023-02-04T00:18:14;28.60;;;6.38;;
30888;SDS011;51092;50.874;7.024;2023-02-04T00:19:15;32.78;;;5.95;;
30888;SDS011;51092;50.874;7.024;2023-02-04T00:20:18;41.85;;;6.97;;
30888;SDS011;51092;50.874;7.024;2023-02-04T00:21:20;26.23;;;6.22;;
30888;SDS011;51092;50.874;7.024;2023-02-04T00:22:22;38.95;;;7.85;;
30888;SDS011;51092;50.874;7.024;2023-02-04T00:23:27;25.48;;;6.00;;
30888;SDS011;51092;50.874;7.024;2023-02-04T00:24:30;28.08;;;6.75;;
30888;SDS011;51092;50.874;7.024;2023-02-04T00:25:31;28.75;;;6.20;;
30888;SDS011;51092;50.874;7.024;2023-02-04T00:26:34;28.00;;;6.28;;
30888;SDS011;51092;50.874;7.024;2023-02-04T00:27:35;25.52;;;6.88;;
30888;SDS011;51092;50.874;7.024;2023-02-04T00:28:39;27.13;;;5.80;;
30888;SDS011;51092;50.874;7.024;2023-02-04T00:29:40;34.25;;;5.75;;
30888;SDS011;51092;50.874;7.024;2023-02-04T00:30:43;31.50;;;6.45;;
30888;SDS011;51092;50.874;7.024;2023-02-04T00:31:45;30.02;;;4.90;;
30888;SDS011;51092;50.874;7.024;2023-02-04T00:32:47;33.33;;;6.55;;
30888;SDS011;51092;50.874;7.024;2023-02-04T00:33:51;23.17;;;4.78;;
30888;SDS011;51092;50.874;7.024;2023-02-04T00:34:53;37.25;;;8.15;;
30888;SDS011;51092;50.874;7.024;2023-02-04T00:35:55;32.55;;;6.57;;
30888;SDS011;51092;50.874;7.024;2023-02-04T00:36:57;25.15;;;4.95;;
30888;SDS011;51092;50.874;7.024;2023-02-04T00:37:59;29.30;;;7.68;;
30888;SDS011;51092;50.874;7.024;2023-02-04T00:39:03;28.75;;;5.22;;
30888;SDS011;51092;50.874;7.024;2023-02-04T00:40:05;39.47;;;8.40;;
30888;SDS011;51092;50.874;7.024;2023-02-04T00:41:07;35.15;;;7.18;;
30888;SDS011;51092;50.874;7.024;2023-02-04T00:42:09;27.58;;;5.47;;
30888;SDS011;51092;50.874;7.024;2023-02-04T00:43:10;26.95;;;6.10;;
30888;SDS011;51092;50.874;7.024;2023-02-04T00:44:12;29.88;;;6.18;;
30888;SDS011;51092;50.874;7.024;2023-02-04T00:45:14;28.58;;;5.43;;
30888;SDS011;51092;50.874;7.024;2023-02-04T00:46:17;30.92;;;6.60;;
30888;SDS011;51092;50.874;7.024;2023-02-04T00:47:18;30.42;;;7.38;;
30888;SDS011;51092;50.874;7.024;2023-02-04T00:48:20;29.98;;;8.73;;
30888;SDS011;51092;50.874;7.024;2023-02-04T00:49:22;27.73;;;7.05;;
30888;SDS011;51092;50.874;7.024;2023-02-04T00:50:25;30.67;;;6.82;;
30888;SDS011;51092;50.874;7.024;2023-02-04T00:51:26;34.42;;;6.03;;
30888;SDS011;51092;50.874;7.024;2023-02-04T00:52:28;27.42;;;5.38;;
30888;SDS011;51092;50.874;7.024;2023-02-04T00:53:30;28.45;;;6.57;;
30888;SDS011;51092;50.874;7.024;2023-02-04T00:54:34;28.17;;;6.38;;
30888;SDS011;51092;50.874;7.024;2023-02-04T00:55:37;29.75;;;6.63;;
30888;SDS011;51092;50.874;7.024;2023-02-04T00:56:39;34.97;;;7.57;;
30888;SDS011;51092;50.874;7.024;2023-02-04T00:57:39;24.50;;;6.40;;
30888;SDS011;51092;50.874;7.024;2023-02-04T00:58:41;28.42;;;6.90;;
30888;SDS011;51092;50.874;7.024;2023-02-04T00:59:42;29.20;;;5.72;;
30888;SDS011;51092;50.874;7.024;2023-02-04T01:00:45;32.78;;;6.30;;
30888;SDS011;51092;50.874;7.024;2023-02-04T01:01:46;27.33;;;7.03;;
30888;SDS011;51092;50.874;7.024;2023-02-04T01:02:49;34.42;;;7.65;;
30888;SDS011;51092;50.874;7.024;2023-02-04T01:03:50;28.85;;;6.75;;
30888;SDS011;51092;50.874;7.024;2023-02-04T01:04:53;32.67;;;6.25;;
30888;SDS011;51092;50.874;7.024;2023-02-04T01:05:54;29.35;;;5.22;;
30888;SDS011;51092;50.874;7.024;2023-02-04T01:06:57;32.60;;;5.90;;
30888;SDS011;51092;50.874;7.024;2023-02-04T01:07:58;25.67;;;7.97;;
30888;SDS011;51092;50.874;7.024;2023-02-04T01:09:01;34.40;;;8.05;;
30888;SDS011;51092;50.874;7.024;2023-02-04T01:10:05;31.75;;;6.20;;
30888;SDS011;51092;50.874;7.024;2023-02-04T01:11:08;30.13;;;6.40;;
30888;SDS011;51092;50.874;7.024;2023-02-04T01:12:10;20.60;;;5.63;;
30888;SDS011;51092;50.874;7.024;2023-02-04T01:13:11;25.75;;;5.47;;
30888;SDS011;51092;50.874;7.024;2023-02-04T01:14:16;30.73;;;5.72;;
30888;SDS011;51092;50.874;7.024;2023-02-04T01:15:17;28.17;;;6.72;;
30888;SDS011;51092;50.874;7.024;2023-02-04T01:16:22;31.83;;;6.30;;
30888;SDS011;51092;50.874;7.024;2023-02-04T01:17:23;24.17;;;7.63;;
30888;SDS011;51092;50.874;7.024;2023-02-04T01:18:25;30.40;;;6.68;;
30888;SDS011;51092;50.874;7.024;2023-02-04T01:19:26;27.40;;;4.82;;
30888;SDS011;51092;50.874;7.024;2023-02-04T01:20:28;28.48;;;6.10;;
30888;SDS011;51092;50.874;7.024;2023-02-04T01:21:31;29.45;;;5.90;;
30888;SDS011;51092;50.874;7.024;2023-02-04T01:22:34;27.92;;;6.47;;
30888;SDS011;51092;50.874;7.024;2023-02-04T01:23:36;19.83;;;5.28;;
30888;SDS011;51092;50.874;7.024;2023-02-04T01:24:40;25.23;;;6.30;;
30888;SDS011;51092;50.874;7.024;2023-02-04T01:25:42;29.40;;;5.55;;
30888;SDS011;51092;50.874;7.024;2023-02-04T01:26:44;33.88;;;6.38;;
30888;SDS011;51092;50.874;7.024;2023-02-04T01:27:45;27.23;;;5.38;;
30888;SDS011;51092;50.874;7.024;2023-02-04T01:28:47;26.00;;;5.05;;
30888;SDS011;51092;50.874;7.024;2023-02-04T01:29:49;32.80;;;6.15;;
30888;SDS011;51092;50.874;7.024;2023-02-04T01:30:51;34.17;;;5.93;;
30888;SDS011;51092;50.874;7.024;2023-02-04T01:31:54;33.10;;;6.57;;
30888;SDS011;51092;50.874;7.024;2023-02-04T01:32:56;31.35;;;6.07;;
30888;SDS011;51092;50.874;7.024;2023-02-04T01:33:58;39.13;;;7.53;;
30888;SDS011;51092;50.874;7.024;2023-02-04T01:35:00;28.67;;;4.88;;
30888;SDS011;51092;50.874;7.024;2023-02-04T01:36:03;29.15;;;5.95;;
30888;SDS011;51092;50.874;7.024;2023-02-04T01:37:05;28.45;;;5.57;;
30888;SDS011;51092;50.874;7.024;2023-02-04T01:38:08;30.55;;;5.95;;
30888;SDS011;51092;50.874;7.024;2023-02-04T01:39:09;28.63;;;6.50;;
30888;SDS011;51092;50.874;7.024;2023-02-04T01:40:11;33.38;;;5.82;;
30888;SDS011;51092;50.874;7.024;2023-02-04T01:41:14;41.03;;;5.93;;
30888;SDS011;51092;50.874;7.024;2023-02-04T01:42:17;25.00;;;5.20;;
30888;SDS011;51092;50.874;7.024;2023-02-04T01:43:19;28.60;;;6.82;;
30888;SDS011;51092;50.874;7.024;2023-02-04T01:44:23;29.05;;;5.63;;
30888;SDS011;51092;50.874;7.024;2023-02-04T01:45:25;32.90;;;7.55;;
30888;SDS011;51092;50.874;7.024;2023-02-04T01:46:28;28.02;;;6.35;;
30888;SDS011;51092;50.874;7.024;2023-02-04T01:47:30;24.67;;;4.45;;
30888;SDS011;51092;50.874;7.024;2023-02-04T01:48:32;28.50;;;5.03;;
30888;SDS011;51092;50.874;7.024;2023-02-04T01:49:34;21.45;;;5.03;;
30888;SDS011;51092;50.874;7.024;2023-02-04T01:50:36;33.03;;;6.68;;
30888;SDS011;51092;50.874;7.024;2023-02-04T01:51:41;31.15;;;6.15;;
30888;SDS011;51092;50.874;7.024;2023-02-04T01:52:43;40.10;;;8.35;;
30888;SDS011;51092;50.874;7.024;2023-02-04T01:53:45;31.98;;;5.75;;
30888;SDS011;51092;50.874;7.024;2023-02-04T01:54:48;26.30;;;5.13;;
30888;SDS011;51092;50.874;7.024;2023-02-04T01:55:50;28.45;;;5.78;;
30888;SDS011;51092;50.874;7.024;2023-02-04T01:56:54;31.88;;;6.35;;
30888;SDS011;51092;50.874;7.024;2023-02-04T01:57:56;33.97;;;6.53;;
30888;SDS011;51092;50.874;7.024;2023-02-04T01:58:59;29.33;;;5.75;;
30888;SDS011;51092;50.874;7.024;2023-02-04T02:00:00;27.38;;;6.40;;
30888;SDS011;51092;50.874;7.024;2023-02-04T02:01:04;32.40;;;5.47;;
30888;SDS011;51092;50.874;7.024;2023-02-04T02:03:43;35.67;;;5.68;;
30888;SDS011;51092;50.874;7.024;2023-02-04T02:04:44;28.40;;;5.55;;
30888;SDS011;51092;50.874;7.024;2023-02-04T02:05:48;37.45;;;7.10;;
30888;SDS011;51092;50.874;7.024;2023-02-04T02:06:53;26.50;;;4.95;;
30888;SDS011;51092;50.874;7.024;2023-02-04T02:07:59;26.02;;;5.50;;
30888;SDS011;51092;50.874;7.024;2023-02-04T02:09:02;27.75;;;5.53;;
30888;SDS011;51092;50.874;7.024;2023-02-04T02:10:05;28.05;;;6.13;;
30888;SDS011;51092;50.874;7.024;2023-02-04T02:11:09;25.77;;;5.43;;
30888;SDS011;51092;50.874;7.024;2023-02-04T02:12:12;31.15;;;6.00;;
30888;SDS011;51092;50.874;7.024;2023-02-04T02:13:15;29.85;;;6.82;;
30888;SDS011;51092;50.874;7.024;2023-02-04T02:14:18;30.63;;;5.53;;
30888;SDS011;51092;50.874;7.024;2023-02-04T02:15:21;32.65;;;6.60;;
30888;SDS011;51092;50.874;7.024;2023-02-04T02:16:23;35.13;;;5.80;;
30888;SDS011;51092;50.874;7.024;2023-02-04T02:17:26;31.70;;;5.75;;
30888;SDS011;51092;50.874;7.024;2023-02-04T02:18:27;31.00;;;5.47;;
30888;SDS011;51092;50.874;7.024;2023-02-04T02:19:29;25.08;;;5.28;;
30888;SDS011;51092;50.874;7.024;2023-02-04T02:20:35;30.20;;;5.95;;
30888;SDS011;51092;50.874;7.024;2023-02-04T02:21:38;36.65;;;6.82;;
30888;SDS011;51092;50.874;7.024;2023-02-04T02:22:48;34.75;;;6.60;;
30888;SDS011;51092;50.874;7.024;2023-02-04T02:24:01;33.10;;;5.80;;
30888;SDS011;51092;50.874;7.024;2023-02-04T02:25:22;32.08;;;6.47;;
30888;SDS011;51092;50.874;7.024;2023-02-04T02:26:25;41.13;;;7.07;;
30888;SDS011;51092;50.874;7.024;2023-02-04T02:27:26;28.45;;;5.47;;
30888;SDS011;51092;50.874;7.024;2023-02-04T02:28:29;27.27;;;6.07;;
30888;SDS011;51092;50.874;7.024;2023-02-04T02:29:31;29.83;;;6.75;;
30888;SDS011;51092;50.874;7.024;2023-02-04T02:30:33;21.95;;;5.80;;
30888;SDS011;51092;50.874;7.024;2023-02-04T02:31:36;30.52;;;5.15;;
30888;SDS011;51092;50.874;7.024;2023-02-04T02:32:37;24.73;;;5.25;;
30888;SDS011;51092;50.874;7.024;2023-02-04T02:33:40;33.33;;;6.40;;
30888;SDS011;51092;50.874;7.024;2023-02-04T02:34:42;36.38;;;5.82;;
30888;SDS011;51092;50.874;7.024;2023-02-04T02:35:49;30.42;;;5.65;;
30888;SDS011;51092;50.874;7.024;2023-02-04T02:36:51;26.55;;;4.97;;
30888;SDS011;51092;50.874;7.024;2023-02-04T02:37:53;32.80;;;5.43;;
30888;SDS011;51092;50.874;7.024;2023-02-04T02:38:55;35.50;;;6.18;;
30888;SDS011;51092;50.874;7.024;2023-02-04T02:40:01;41.95;;;6.45;;
30888;SDS011;51092;50.874;7.024;2023-02-04T02:41:04;26.05;;;5.13;;
30888;SDS011;51092;50.874;7.024;2023-02-04T02:42:08;32.53;;;6.07;;
30888;SDS011;51092;50.874;7.024;2023-02-04T02:43:12;23.90;;;5.95;;
30888;SDS011;51092;50.874;7.024;2023-02-04T02:44:18;26.80;;;4.82;;
30888;SDS011;51092;50.874;7.024;2023-02-04T02:45:21;29.25;;;5.15;;
30888;SDS011;51092;50.874;7.024;2023-02-04T02:46:26;32.10;;;5.18;;
30888;SDS011;51092;50.874;7.024;2023-02-04T02:47:28;24.95;;;5.35;;
30888;SDS011;51092;50.874;7.024;2023-02-04T02:48:30;26.70;;;5.95;;
30888;SDS011;51092;50.874;7.024;2023-02-04T02:49:32;41.83;;;6.32;;
30888;SDS011;51092;50.874;7.024;2023-02-04T02:50:39;33.85;;;5.50;;
30888;SDS011;51092;50.874;7.024;2023-02-04T02:51:46;32.60;;;5.82;;
30888;SDS011;51092;50.874;7.024;2023-02-04T02:52:49;31.63;;;4.97;;
30888;SDS011;51092;50.874;7.024;2023-02-04T02:53:51;32.15;;;5.32;;
30888;SDS011;51092;50.874;7.024;2023-02-04T02:54:54;34.15;;;4.57;;
30888;SDS011;51092;50.874;7.024;2023-02-04T02:55:57;39.00;;;5.65;;
30888;SDS011;51092;50.874;7.024;2023-02-04T02:57:01;32.92;;;6.40;;
30888;SDS011;51092;50.874;7.024;2023-02-04T02:58:03;24.92;;;4.38;;
30888;SDS011;51092;50.874;7.024;2023-02-04T02:59:12;25.83;;;5.60;;
30888;SDS011;51092;50.874;7.024;2023-02-04T03:00:15;28.85;;;5.38;;
30888;SDS011;51092;50.874;7.024;2023-02-04T03:01:19;40.55;;;6.22;;
30888;SDS011;51092;50.874;7.024;2023-02-04T03:02:21;26.40;;;5.20;;
30888;SDS011;51092;50.874;7.024;2023-02-04T03:03:24;36.53;;;9.02;;
30888;SDS011;51092;50.874;7.024;2023-02-04T03:04:27;26.98;;;5.38;;
30888;SDS011;51092;50.874;7.024;2023-02-04T03:05:33;35.20;;;6.97;;
30888;SDS011;51092;50.874;7.024;2023-02-04T03:06:37;26.08;;;4.95;;
30888;SDS011;51092;50.874;7.024;2023-02-04T03:07:40;35.75;;;6.53;;
30888;SDS011;51092;50.874;7.024;2023-02-04T03:08:42;26.55;;;5.85;;
30888;SDS011;51092;50.874;7.024;2023-02-04T03:09:45;31.95;;;5.68;;
30888;SDS011;51092;50.874;7.024;2023-02-04T03:10:47;23.13;;;4.13;;
30888;SDS011;51092;50.874;7.024;2023-02-04T03:11:51;30.38;;;5.00;;
30888;SDS011;51092;50.874;7.024;2023-02-04T03:12:53;30.88;;;4.95;;
30888;SDS011;51092;50.874;7.024;2023-02-04T03:13:56;27.58;;;4.72;;
30888;SDS011;51092;50.874;7.024;2023-02-04T03:14:58;27.05;;;5.85;;
30888;SDS011;51092;50.874;7.024;2023-02-04T03:16:01;35.20;;;7.68;;
30888;SDS011;51092;50.874;7.024;2023-02-04T03:17:04;24.85;;;4.90;;
30888;SDS011;51092;50.874;7.024;2023-02-04T03:18:09;34.08;;;6.55;;
30888;SDS011;51092;50.874;7.024;2023-02-04T03:19:12;31.98;;;7.20;;
30888;SDS011;51092;50.874;7.024;2023-02-04T03:20:14;21.77;;;4.18;;
30888;SDS011;51092;50.874;7.024;2023-02-04T03:21:17;29.95;;;4.82;;
30888;SDS011;51092;50.874;7.024;2023-02-04T03:22:19;24.42;;;5.40;;
30888;SDS011;51092;50.874;7.024;2023-02-04T03:23:21;36.38;;;5.60;;
30888;SDS011;51092;50.874;7.024;2023-02-04T03:24:23;31.90;;;6.70;;
30888;SDS011;51092;50.874;7.024;2023-02-04T03:25:25;24.65;;;4.72;;
30888;SDS011;51092;50.874;7.024;2023-02-04T03:26:29;23.50;;;5.35;;
30888;SDS011;51092;50.874;7.024;2023-02-04T03:27:31;28.00;;;6.13;;
30888;SDS011;51092;50.874;7.024;2023-02-04T03:28:37;27.55;;;4.65;;
30888;SDS011;51092;50.874;7.024;2023-02-04T03:29:41;34.67;;;6.05;;
30888;SDS011;51092;50.874;7.024;2023-02-04T03:30:44;22.05;;;4.60;;
30888;SDS011;51092;50.874;7.024;2023-02-04T03:31:55;27.52;;;6.47;;
30888;SDS011;51092;50.874;7.024;2023-02-04T03:32:59;33.25;;;5.78;;
30888;SDS011;51092;50.874;7.024;2023-02-04T03:34:01;29.60;;;5.32;;
30888;SDS011;51092;50.874;7.024;2023-02-04T03:35:06;24.33;;;5.07;;
30888;SDS011;51092;50.874;7.024;2023-02-04T03:36:08;23.35;;;5.50;;
30888;SDS011;51092;50.874;7.024;2023-02-04T03:37:11;25.30;;;4.32;;
30888;SDS011;51092;50.874;7.024;2023-02-04T03:38:11;22.98;;;5.78;;
30888;SDS011;51092;50.874;7.024;2023-02-04T03:39:13;32.42;;;5.63;;
30888;SDS011;51092;50.874;7.024;2023-02-04T03:40:14;26.05;;;5.25;;
30888;SDS011;51092;50.874;7.024;2023-02-04T03:41:17;23.98;;;5.00;;
30888;SDS011;51092;50.874;7.024;2023-02-04T03:42:18;26.55;;;5.93;;
30888;SDS011;51092;50.874;7.024;2023-02-04T03:43:22;31.65;;;5.53;;
30888;SDS011;51092;50.874;7.024;2023-02-04T03:44:23;26.23;;;3.92;;
30888;SDS011;51092;50.874;7.024;2023-02-04T03:45:26;25.20;;;4.53;;
30888;SDS011;51092;50.874;7.024;2023-02-04T03:46:28;26.90;;;5.35;;
30888;SDS011;51092;50.874;7.024;2023-02-04T03:47:31;28.33;;;4.50;;
30888;SDS011;51092;50.874;7.024;2023-02-04T03:48:32;23.10;;;4.82;;
30888;SDS011;51092;50.874;7.024;2023-02-04T03:49:35;23.40;;;4.55;;
30888;SDS011;51092;50.874;7.024;2023-02-04T03:50:36;26.25;;;5.93;;
30888;SDS011;51092;50.874;7.024;2023-02-04T03:51:39;21.13;;;4.03;;
30888;SDS011;51092;50.874;7.024;2023-02-04T03:52:40;22.88;;;4.00;;
30888;SDS011;51092;50.874;7.024;2023-02-04T03:53:47;29.60;;;5.90;;
30888;SDS011;51092;50.874;7.024;2023-02-04T03:54:49;33.70;;;5.75;;
30888;SDS011;51092;50.874;7.024;2023-02-04T03:55:51;30.35;;;5.50;;
30888;SDS011;51092;50.874;7.024;2023-02-04T03:56:53;20.73;;;3.97;;
30888;SDS011;51092;50.874;7.024;2023-02-04T03:57:55;31.67;;;5.80;;
30888;SDS011;51092;50.874;7.024;2023-02-04T03:58:58;24.55;;;5.15;;
30888;SDS011;51092;50.874;7.024;2023-02-04T04:00:03;24.23;;;5.65;;
30888;SDS011;51092;50.874;7.024;2023-02-04T04:01:05;26.23;;;4.75;;
30888;SDS011;51092;50.874;7.024;2023-02-04T04:02:07;23.88;;;5.00;;
30888;SDS011;51092;50.874;7.024;2023-02-04T04:03:09;23.30;;;4.85;;
30888;SDS011;51092;50.874;7.024;2023-02-04T04:04:11;25.92;;;4.47;;
30888;SDS011;51092;50.874;7.024;2023-02-04T04:05:13;31.27;;;5.93;;
30888;SDS011;51092;50.874;7.024;2023-02-04T04:06:16;26.23;;;5.65;;
30888;SDS011;51092;50.874;7.024;2023-02-04T04:07:17;31.52;;;5.72;;
30888;SDS011;51092;50.874;7.024;2023-02-04T04:08:20;21.38;;;5.45;;
30888;SDS011;51092;50.874;7.024;2023-02-04T04:09:21;32.05;;;5.53;;
30888;SDS011;51092;50.874;7.024;2023-02-04T04:10:24;27.90;;;5.43;;
30888;SDS011;51092;50.874;7.024;2023-02-04T04:11:25;25.67;;;5.95;;
30888;SDS011;51092;50.874;7.024;2023-02-04T04:12:27;22.83;;;4.75;;
30888;SDS011;51092;50.874;7.024;2023-02-04T04:13:28;25.15;;;3.88;;
30888;SDS011;51092;50.874;7.024;2023-02-04T04:14:31;29.17;;;5.15;;
30888;SDS011;51092;50.874;7.024;2023-02-04T04:15:32;31.38;;;4.45;;
30888;SDS011;51092;50.874;7.024;2023-02-04T04:16:35;24.83;;;5.13;;
30888;SDS011;51092;50.874;7.024;2023-02-04T04:17:36;27.70;;;5.20;;
30888;SDS011;51092;50.874;7.024;2023-02-04T04:18:38;33.42;;;5.57;;
30888;SDS011;51092;50.874;7.024;2023-02-04T04:19:39;26.38;;;5.35;;
30888;SDS011;51092;50.874;7.024;2023-02-04T04:20:41;23.02;;;4.43;;
30888;SDS011;51092;50.874;7.024;2023-02-04T04:21:42;31.75;;;5.97;;
30888;SDS011;51092;50.874;7.024;2023-02-04T04:22:45;28.10;;;6.03;;
30888;SDS011;51092;50.874;7.024;2023-02-04T04:23:46;22.02;;;4.55;;
30888;SDS011;51092;50.874;7.024;2023-02-04T04:24:49;29.60;;;5.22;;
30888;SDS011;51092;50.874;7.024;2023-02-04T04:25:50;30.98;;;5.65;;
30888;SDS011;51092;50.874;7.024;2023-02-04T04:26:53;30.02;;;5.47;;
30888;SDS011;51092;50.874;7.024;2023-02-04T04:27:54;25.95;;;5.47;;
30888;SDS011;51092;50.874;7.024;2023-02-04T04:28:57;27.25;;;4.15;;
30888;SDS011;51092;50.874;7.024;2023-02-04T04:30:00;20.95;;;4.07;;
30888;SDS011;51092;50.874;7.024;2023-02-04T04:31:02;30.00;;;6.57;;
30888;SDS011;51092;50.874;7.024;2023-02-04T04:32:04;23.05;;;4.32;;
30888;SDS011;51092;50.874;7.024;2023-02-04T04:33:07;22.58;;;4.55;;
30888;SDS011;51092;50.874;7.024;2023-02-04T04:34:08;27.20;;;6.05;;
30888;SDS011;51092;50.874;7.024;2023-02-04T04:35:11;26.48;;;6.28;;
30888;SDS011;51092;50.874;7.024;2023-02-04T04:36:13;18.88;;;5.78;;
30888;SDS011;51092;50.874;7.024;2023-02-04T04:37:15;34.83;;;6.72;;
30888;SDS011;51092;50.874;7.024;2023-02-04T04:38:17;29.02;;;7.15;;
30888;SDS011;51092;50.874;7.024;2023-02-04T04:39:19;23.75;;;6.82;;
30888;SDS011;51092;50.874;7.024;2023-02-04T04:40:24;45.05;;;8.48;;
30888;SDS011;51092;50.874;7.024;2023-02-04T04:41:26;24.20;;;7.32;;
30888;SDS011;51092;50.874;7.024;2023-02-04T04:42:28;23.88;;;6.30;;
30888;SDS011;51092;50.874;7.024;2023-02-04T04:43:30;31.25;;;7.65;;
30888;SDS011;51092;50.874;7.024;2023-02-04T04:44:32;30.13;;;6.80;;
30888;SDS011;51092;50.874;7.024;2023-02-04T04:45:36;27.23;;;8.15;;
30888;SDS011;51092;50.874;7.024;2023-02-04T04:46:37;26.80;;;9.23;;
30888;SDS011;51092;50.874;7.024;2023-02-04T04:47:40;30.83;;;8.52;;
30888;SDS011;51092;50.874;7.024;2023-02-04T04:48:41;34.67;;;9.68;;
30888;SDS011;51092;50.874;7.024;2023-02-04T04:49:44;24.35;;;8.88;;
30888;SDS011;51092;50.874;7.024;2023-02-04T04:50:45;31.58;;;9.43;;
30888;SDS011;51092;50.874;7.024;2023-02-04T04:51:48;29.38;;;8.50;;
30888;SDS011;51092;50.874;7.024;2023-02-04T04:52:49;31.17;;;9.43;;
30888;SDS011;51092;50.874;7.024;2023-02-04T04:53:52;38.05;;;10.77;;
30888;SDS011;51092;50.874;7.024;2023-02-04T04:54:53;30.98;;;10.40;;
30888;SDS011;51092;50.874;7.024;2023-02-04T04:55:56;33.40;;;11.00;;
30888;SDS011;51092;50.874;7.024;2023-02-04T04:56:57;38.22;;;9.73;;
30888;SDS011;51092;50.874;7.024;2023-02-04T04:58:00;31.88;;;10.45;;
30888;SDS011;51092;50.874;7.024;2023-02-04T04:59:01;27.05;;;9.93;;
30888;SDS011;51092;50.874;7.024;2023-02-04T05:00:04;25.17;;;9.30;;
30888;SDS011;51092;50.874;7.024;2023-02-04T05:01:09;27.80;;;9.07;;
30888;SDS011;51092;50.874;7.024;2023-02-04T05:02:11;23.98;;;8.07;;
30888;SDS011;51092;50.874;7.024;2023-02-04T05:03:13;25.00;;;8.52;;
30888;SDS011;51092;50.874;7.024;2023-02-04T05:04:15;31.55;;;9.35;;
30888;SDS011;51092;50.874;7.024;2023-02-04T05:05:17;33.25;;;8.25;;
30888;SDS011;51092;50.874;7.024;2023-02-04T05:06:19;30.70;;;8.88;;
30888;SDS011;51092;50.874;7.024;2023-02-04T05:07:25;25.80;;;9.45;;
30888;SDS011;51092;50.874;7.024;2023-02-04T05:08:27;38.97;;;8.52;;
30888;SDS011;51092;50.874;7.024;2023-02-04T05:09:29;34.58;;;9.15;;
30888;SDS011;51092;50.874;7.024;2023-02-04T05:10:31;34.30;;;8.10;;
30888;SDS011;51092;50.874;7.024;2023-02-04T05:11:33;38.20;;;10.25;;
30888;SDS011;51092;50.874;7.024;2023-02-04T05:12:35;30.35;;;8.77;;
30888;SDS011;51092;50.874;7.024;2023-02-04T05:13:36;33.22;;;9.43;;
30888;SDS011;51092;50.874;7.024;2023-02-04T05:14:39;32.95;;;9.23;;
30888;SDS011;51092;50.874;7.024;2023-02-04T05:15:40;34.38;;;8.95;;
30888;SDS011;51092;50.874;7.024;2023-02-04T05:16:43;24.08;;;7.90;;
30888;SDS011;51092;50.874;7.024;2023-02-04T05:17:44;34.28;;;8.65;;
30888;SDS011;51092;50.874;7.024;2023-02-04T05:18:46;23.80;;;7.80;;
30888;SDS011;51092;50.874;7.024;2023-02-04T05:19:48;29.30;;;7.60;;
30888;SDS011;51092;50.874;7.024;2023-02-04T05:20:52;28.50;;;7.50;;
30888;SDS011;51092;50.874;7.024;2023-02-04T05:21:54;32.45;;;8.27;;
30888;SDS011;51092;50.874;7.024;2023-02-04T05:22:57;32.53;;;8.20;;
30888;SDS011;51092;50.874;7.024;2023-02-04T05:24:00;25.80;;;7.68;;
30888;SDS011;51092;50.874;7.024;2023-02-04T05:25:03;28.77;;;8.55;;
30888;SDS011;51092;50.874;7.024;2023-02-04T05:26:05;30.25;;;7.97;;
30888;SDS011;51092;50.874;7.024;2023-02-04T05:27:22;33.20;;;9.00;;
30888;SDS011;51092;50.874;7.024;2023-02-04T05:28:24;33.28;;;8.10;;
30888;SDS011;51092;50.874;7.024;2023-02-04T05:29:26;28.08;;;8.02;;
30888;SDS011;51092;50.874;7.024;2023-02-04T05:30:28;25.30;;;7.53;;
30888;SDS011;51092;50.874;7.024;2023-02-04T05:31:30;30.15;;;7.60;;
30888;SDS011;51092;50.874;7.024;2023-02-04T05:32:35;27.42;;;7.35;;
30888;SDS011;51092;50.874;7.024;2023-02-04T05:33:36;29.42;;;7.28;;
30888;SDS011;51092;50.874;7.024;2023-02-04T05:34:39;31.65;;;7.63;;
30888;SDS011;51092;50.874;7.024;2023-02-04T05:35:40;34.88;;;7.68;;
30888;SDS011;51092;50.874;7.024;2023-02-04T05:36:43;29.55;;;6.93;;
30888;SDS011;51092;50.874;7.024;2023-02-04T05:37:44;30.92;;;6.47;;
30888;SDS011;51092;50.874;7.024;2023-02-04T05:38:47;27.27;;;6.35;;
30888;SDS011;51092;50.874;7.024;2023-02-04T05:39:50;38.65;;;6.20;;
30888;SDS011;51092;50.874;7.024;2023-02-04T05:40:52;25.63;;;5.93;;
30888;SDS011;51092;50.874;7.024;2023-02-04T05:41:54;36.17;;;6.63;;
30888;SDS011;51092;50.874;7.024;2023-02-04T05:42:56;33.67;;;6.82;;
30888;SDS011;51092;50.874;7.024;2023-02-04T05:43:58;28.13;;;6.47;;
30888;SDS011;51092;50.874;7.024;2023-02-04T05:45:00;24.33;;;5.43;;
30888;SDS011;51092;50.874;7.024;2023-02-04T05:46:02;28.15;;;5.63;;
30888;SDS011;51092;50.874;7.024;2023-02-04T05:47:04;28.33;;;6.82;;
30888;SDS011;51092;50.874;7.024;2023-02-04T05:48:07;25.60;;;5.63;;
30888;SDS011;51092;50.874;7.024;2023-02-04T05:49:10;35.42;;;6.88;;
30888;SDS011;51092;50.874;7.024;2023-02-04T05:50:11;39.00;;;7.47;;
30888;SDS011;51092;50.874;7.024;2023-02-04T05:51:14;21.38;;;5.25;;
30888;SDS011;51092;50.874;7.024;2023-02-04T05:52:15;33.65;;;7.72;;
30888;SDS011;51092;50.874;7.024;2023-02-04T05:53:18;39.58;;;7.40;;
30888;SDS011;51092;50.874;7.024;2023-02-04T05:54:19;30.95;;;6.78;;
30888;SDS011;51092;50.874;7.024;2023-02-04T05:55:22;34.45;;;6.65;;
30888;SDS011;51092;50.874;7.024;2023-02-04T05:56:25;40.20;;;6.18;;
30888;SDS011;51092;50.874;7.024;2023-02-04T05:57:28;27.02;;;5.20;;
30888;SDS011;51092;50.874;7.024;2023-02-04T05:58:29;29.92;;;5.65;;
30888;SDS011;51092;50.874;7.024;2023-02-04T05:59:33;27.65;;;5.93;;
30888;SDS011;51092;50.874;7.024;2023-02-04T06:00:35;24.10;;;4.78;;
30888;SDS011;51092;50.874;7.024;2023-02-04T06:01:37;21.73;;;4.53;;
30888;SDS011;51092;50.874;7.024;2023-02-04T06:02:39;31.58;;;6.47;;
30888;SDS011;51092;50.874;7.024;2023-02-04T06:03:43;36.35;;;6.75;;
30888;SDS011;51092;50.874;7.024;2023-02-04T06:04:45;35.70;;;7.47;;
30888;SDS011;51092;50.874;7.024;2023-02-04T06:05:47;29.45;;;5.25;;
30888;SDS011;51092;50.874;7.024;2023-02-04T06:06:49;33.67;;;6.75;;
30888;SDS011;51092;50.874;7.024;2023-02-04T06:07:51;30.42;;;6.70;;
30888;SDS011;51092;50.874;7.024;2023-02-04T06:08:53;30.10;;;6.82;;
30888;SDS011;51092;50.874;7.024;2023-02-04T06:09:55;28.70;;;5.78;;
30888;SDS011;51092;50.874;7.024;2023-02-04T06:10:58;27.75;;;5.82;;
30888;SDS011;51092;50.874;7.024;2023-02-04T06:11:59;25.95;;;5.13;;
30888;SDS011;51092;50.874;7.024;2023-02-04T06:13:01;34.47;;;5.55;;